Time;durP1;ratioP1;P1;durP2;ratioP2;P2;SDS_P1;SDS_P2;PMS_P1;PMS_P2;Temp;Humidity;BMP_temperature;BMP_pressure;BME280_temperature;BME280_humidity;BME280_pressure;Samples;Min_cycle;Max_cycle;Signal;HPM_P1;HPM_P2
2024/04/15 00:04:06;;;;;;;;;;;;;;;14.16;100.00;95385.97;10958695;26;3103;-63
2024/04/15 00:09:10;;;;;;;;;;;;;;;14.05;100.00;95380.78;10955318;26;3253;-64
2024/04/15 00:14:14;;;;;;;;;;;;;;;13.95;100.00;95382.94;10955091;26;2944;-65
2024/04/15 00:19:18;;;;;;;;;;;;;;;13.95;100.00;95367.50;10958905;26;2920;-64
2024/04/15 00:24:23;;;;;;;;;;;;;;;13.96;100.00;95363.69;10928990;26;3188;-66
2024/04/15 00:29:27;;;;;;;;;;;;;;;14.06;100.00;95360.00;10953656;26;3249;-64
2024/04/15 00:34:31;;;;;;;;;;;;;;;14.09;100.00;95353.16;10956531;26;3080;-66
2024/04/15 00:39:36;;;;;;;;;;;;;;;14.05;100.00;95342.94;10956444;26;3004;-65
2024/04/15 00:44:41;;;;;;;;;;;;;;;14.07;100.00;95340.75;10956637;26;3132;-64
2024/04/15 00:49:45;;;;;;;;;;;;;;;14.07;100.00;95323.75;10956281;26;3354;-66
2024/04/15 00:54:49;;;;;;;;;;;;;;;14.07;100.00;95311.03;10963019;26;3124;-64
2024/04/15 00:59:54;;;;;;;;;;;;;;;14.09;100.00;95310.72;10952712;26;3226;-65
2024/04/15 01:04:58;;;;;;;;;;;;;;;14.11;100.00;95296.88;10954203;26;3118;-65
2024/04/15 01:10:02;;;;;;;;;;;;;;;14.05;100.00;95291.59;10964252;26;3087;-66
2024/04/15 01:15:06;;;;;;;;;;;;;;;14.05;100.00;95278.09;10930089;26;2837;-63
2024/04/15 01:20:11;;;;;;;;;;;;;;;14.01;100.00;95260.91;10956103;26;3225;-64
2024/04/15 01:25:15;;;;;;;;;;;;;;;13.99;100.00;95255.00;10954926;26;3130;-65
2024/04/15 01:30:19;;;;;;;;;;;;;;;13.94;100.00;95260.53;10956383;26;3115;-65
2024/04/15 01:35:24;;;;;;;;;;;;;;;13.92;100.00;95254.63;10957411;26;3127;-71
2024/04/15 01:40:28;;;;;;;;;;;;;;;13.87;100.00;95257.47;10957294;26;3179;-66
2024/04/15 01:45:32;;;;;;;;;;;;;;;13.92;100.00;95249.22;10957472;26;2927;-66
2024/04/15 01:50:37;;;;;;;;;;;;;;;13.88;100.00;95245.56;10969802;26;3241;-68
2024/04/15 01:55:41;;;;;;;;;;;;;;;13.84;100.00;95246.47;10959070;26;2849;-68
2024/04/15 02:00:45;;;;;;;;;;;;;;;13.82;100.00;95238.69;10964976;26;3291;-64
2024/04/15 02:05:50;;;;;;;;;;;;;;;13.90;100.00;95231.72;10955595;26;2853;-65
2024/04/15 02:10:54;;;;;;;;;;;;;;;13.96;100.00;95225.09;10953517;26;3119;-65
2024/04/15 02:15:58;;;;;;;;;;;;;;;14.02;100.00;95213.84;10964254;26;3135;-64
2024/04/15 02:21:03;;;;;;;;;;;;;;;14.10;100.00;95203.41;10967568;26;3300;-64
2024/04/15 02:26:07;;;;;;;;;;;;;;;14.16;100.00;95207.56;10961091;26;3029;-66
2024/04/15 02:31:11;;;;;;;;;;;;;;;14.19;100.00;95196.16;10954185;26;2939;-64
2024/04/15 02:36:16;;;;;;;;;;;;;;;14.26;100.00;95191.09;10959086;26;2981;-64
2024/04/15 02:41:20;;;;;;;;;;;;;;;14.31;100.00;95178.25;10958541;26;2947;-66
2024/04/15 02:46:24;;;;;;;;;;;;;;;14.28;100.00;95180.75;10952759;26;3126;-67
2024/04/15 02:51:31;;;;;;;;;;;;;;;14.33;100.00;95170.63;10959933;26;3126;-64
2024/04/15 02:56:37;;;;;;;;;;;;;;;14.28;100.00;95186.16;10952871;26;3058;-65
2024/04/15 03:01:41;;;;;;;;;;;;;;;14.33;100.00;95186.84;10958399;26;3200;-66
2024/04/15 03:06:46;;;;;;;;;;;;;;;14.41;100.00;95190.69;10968255;26;3115;-65
2024/04/15 03:11:50;;;;;;;;;;;;;;;14.46;100.00;95198.69;10966439;26;3245;-66
2024/04/15 03:16:54;;;;;;;;;;;;;;;14.65;100.00;95200.34;10963876;26;2547;-65
2024/04/15 03:21:58;;;;;;;;;;;;;;;14.80;100.00;95202.63;10956306;26;2866;-65
2024/04/15 03:27:05;;;;;;;;;;;;;;;14.83;100.00;95207.44;10961947;26;3054;-65
2024/04/15 03:32:09;;;;;;;;;;;;;;;14.88;100.00;95207.25;10965292;26;3241;-65
2024/04/15 03:37:13;;;;;;;;;;;;;;;14.95;100.00;95206.78;10973685;26;2932;-64
2024/04/15 03:42:18;;;;;;;;;;;;;;;15.02;100.00;95212.56;10963808;26;3003;-64
2024/04/15 03:47:22;;;;;;;;;;;;;;;15.05;100.00;95214.63;10968881;26;3366;-66
2024/04/15 03:52:26;;;;;;;;;;;;;;;15.10;100.00;95220.69;10966924;26;3088;-65
2024/04/15 03:57:31;;;;;;;;;;;;;;;15.08;100.00;95222.13;10960965;26;2875;-65
2024/04/15 04:02:35;;;;;;;;;;;;;;;15.02;100.00;95226.91;10962029;26;3059;-65
2024/04/15 04:07:39;;;;;;;;;;;;;;;14.85;100.00;95213.31;10960189;26;2968;-63
2024/04/15 04:12:43;;;;;;;;;;;;;;;14.69;100.00;95231.06;10957928;26;3095;-65
2024/04/15 04:17:47;;;;;;;;;;;;;;;14.59;100.00;95246.47;10962478;26;3111;-65
2024/04/15 04:22:52;;;;;;;;;;;;;;;14.60;100.00;95239.94;10965674;26;3130;-65
2024/04/15 04:27:56;;;;;;;;;;;;;;;14.59;100.00;95232.94;10963542;26;3035;-65
2024/04/15 04:33:00;;;;;;;;;;;;;;;14.61;100.00;95240.75;10964494;26;3142;-64
2024/04/15 04:38:04;;;;;;;;;;;;;;;14.53;100.00;95245.00;10955447;26;3233;-68
2024/04/15 04:43:09;;;;;;;;;;;;;;;14.45;100.00;95237.63;10960994;26;3241;-65
2024/04/15 04:48:13;;;;;;;;;;;;;;;14.50;100.00;95234.00;10970704;26;2945;-64
2024/04/15 04:53:17;;;;;;;;;;;;;;;14.50;100.00;95237.50;10963052;26;2971;-64
2024/04/15 04:58:22;;;;;;;;;;;;;;;14.22;100.00;95217.94;10952829;26;3228;-65
2024/04/15 05:03:26;;;;;;;;;;;;;;;13.85;100.00;95256.16;10950228;26;2933;-66
2024/04/15 05:08:30;;;;;;;;;;;;;;;13.61;100.00;95261.84;10957823;26;3353;-64
2024/04/15 05:13:34;;;;;;;;;;;;;;;13.43;100.00;95237.41;10952233;26;3214;-65
2024/04/15 05:18:39;;;;;;;;;;;;;;;13.18;100.00;95249.53;10960208;26;2988;-65
2024/04/15 05:23:43;;;;;;;;;;;;;;;13.08;100.00;95271.31;10929657;26;2941;-66
2024/04/15 05:28:47;;;;;;;;;;;;;;;13.01;100.00;95270.94;10912169;26;2905;-67
2024/04/15 05:33:52;;;;;;;;;;;;;;;13.06;100.00;95275.44;10941108;26;3221;-66
2024/04/15 05:38:56;;;;;;;;;;;;;;;13.25;100.00;95276.16;10948261;26;2872;-66
2024/04/15 05:44:00;;;;;;;;;;;;;;;13.35;100.00;95300.22;10948212;26;3213;-65
2024/04/15 05:49:05;;;;;;;;;;;;;;;13.30;100.00;95267.16;10944813;26;3222;-66
2024/04/15 05:54:09;;;;;;;;;;;;;;;13.37;100.00;95294.53;10951609;26;3139;-66
2024/04/15 05:59:14;;;;;;;;;;;;;;;13.18;100.00;95317.00;10943599;26;3052;-66
2024/04/15 06:04:19;;;;;;;;;;;;;;;13.10;100.00;95301.50;10944313;26;3072;-66
2024/04/15 06:09:23;;;;;;;;;;;;;;;13.08;100.00;95292.13;10935219;26;3157;-67
2024/04/15 06:14:27;;;;;;;;;;;;;;;13.18;100.00;95281.13;10944996;26;3115;-66
2024/04/15 06:19:32;;;;;;;;;;;;;;;13.44;100.00;95292.22;10948460;26;2853;-66
2024/04/15 06:24:36;;;;;;;;;;;;;;;13.50;100.00;95299.09;10953976;26;2837;-66
2024/04/15 06:29:40;;;;;;;;;;;;;;;13.51;100.00;95273.69;10922942;26;3016;-66
2024/04/15 06:34:45;;;;;;;;;;;;;;;14.01;100.00;95287.13;10948859;26;3258;-67
2024/04/15 06:39:50;;;;;;;;;;;;;;;14.16;100.00;95302.97;10951924;26;2871;-67
2024/04/15 06:44:54;;;;;;;;;;;;;;;14.48;100.00;95307.34;10961013;26;3114;-67
2024/04/15 06:49:59;;;;;;;;;;;;;;;14.43;100.00;95312.03;10961238;26;3016;-65
2024/04/15 06:55:03;;;;;;;;;;;;;;;14.25;100.00;95292.22;10963914;26;3138;-66
2024/04/15 07:00:07;;;;;;;;;;;;;;;14.36;100.00;95276.53;10957899;26;2880;-66
2024/04/15 07:05:11;;;;;;;;;;;;;;;14.38;100.00;95264.31;10953150;26;2904;-66
2024/04/15 07:10:16;;;;;;;;;;;;;;;14.36;100.00;95261.09;10954076;26;3130;-64
2024/04/15 07:15:21;;;;;;;;;;;;;;;14.50;100.00;95251.03;10958018;26;3117;-65
2024/04/15 07:20:25;;;;;;;;;;;;;;;14.73;100.00;95251.78;10952729;26;3008;-68
2024/04/15 07:25:29;;;;;;;;;;;;;;;15.07;100.00;95234.06;10960192;26;3091;-71
2024/04/15 07:30:34;;;;;;;;;;;;;;;15.21;100.00;95215.78;10955557;26;3054;-67
2024/04/15 07:35:38;;;;;;;;;;;;;;;15.52;100.00;95229.19;10925095;26;3115;-73
2024/04/15 07:40:43;;;;;;;;;;;;;;;15.47;100.00;95240.19;10947832;26;2960;-70
2024/04/15 07:45:47;;;;;;;;;;;;;;;15.28;100.00;95228.84;10952226;26;3261;-69
2024/04/15 07:50:52;;;;;;;;;;;;;;;15.75;100.00;95234.50;10921523;26;3217;-71
2024/04/15 07:55:56;;;;;;;;;;;;;;;15.23;100.00;95243.34;10953577;26;3024;-75
2024/04/15 08:01:01;;;;;;;;;;;;;;;14.92;100.00;95238.00;10946493;26;3139;-85
2024/04/15 08:06:06;;;;;;;;;;;;;;;14.72;100.00;95235.88;10958070;26;2790;-77
2024/04/15 08:11:13;;;;;;;;;;;;;;;14.53;100.00;95253.13;10955068;26;3150;-78
2024/04/15 08:16:19;;;;;;;;;;;;;;;14.86;100.00;95237.34;10927344;26;3071;-79
2024/04/15 08:21:24;;;;;;;;;;;;;;;15.09;100.00;95239.97;10953948;26;3114;-78
2024/04/15 08:26:29;;;;;;;;;;;;;;;15.08;100.00;95241.88;10957122;26;3072;-78
2024/04/15 08:31:37;;;;;;;;;;;;;;;15.36;100.00;95241.59;10958881;26;3005;-79
2024/04/15 08:36:41;;;;;;;;;;;;;;;15.08;100.00;95247.28;10952570;26;3230;-79
2024/04/15 08:41:45;;;;;;;;;;;;;;;14.99;100.00;95246.44;10958173;26;3103;-78
2024/04/15 08:47:09;;;;;;;;;;;;;;;14.96;100.00;95257.94;10951485;26;3123;-78
2024/04/15 08:52:14;;;;;;;;;;;;;;;14.53;100.00;95255.03;10954646;26;3040;-78
2024/04/15 08:57:18;;;;;;;;;;;;;;;14.41;100.00;95269.09;10947761;26;3154;-70
2024/04/15 09:02:23;;;;;;;;;;;;;;;14.36;100.00;95261.09;10945195;26;3059;-72
2024/04/15 09:07:32;;;;;;;;;;;;;;;14.43;100.00;95250.66;10960655;26;2861;-81
2024/04/15 09:12:36;;;;;;;;;;;;;;;14.34;100.00;95268.75;10959311;26;3012;-77
2024/04/15 09:17:41;;;;;;;;;;;;;;;14.26;100.00;95255.97;10931864;26;2869;-71
2024/04/15 09:22:45;;;;;;;;;;;;;;;14.23;100.00;95268.19;10951247;26;2995;-79
2024/04/15 09:27:49;;;;;;;;;;;;;;;14.27;100.00;95249.47;10972134;26;3159;-70
2024/04/15 09:32:54;;;;;;;;;;;;;;;14.48;100.00;95253.25;10951293;26;2885;-70
2024/04/15 09:37:58;;;;;;;;;;;;;;;14.27;100.00;95246.75;10953479;26;2975;-72
2024/04/15 09:43:03;;;;;;;;;;;;;;;13.82;100.00;95263.00;10928805;26;3126;-70
2024/04/15 09:48:07;;;;;;;;;;;;;;;13.47;100.00;95257.28;10956272;26;3118;-69
2024/04/15 09:53:12;;;;;;;;;;;;;;;13.33;100.00;95283.53;10955884;26;3086;-70
2024/04/15 09:58:16;;;;;;;;;;;;;;;13.30;100.00;95265.25;10953044;26;2972;-69
2024/04/15 10:03:20;;;;;;;;;;;;;;;13.32;100.00;95260.34;10952695;26;3106;-70
2024/04/15 10:08:25;;;;;;;;;;;;;;;13.24;100.00;95285.34;10952221;26;3077;-71
2024/04/15 10:13:29;;;;;;;;;;;;;;;13.16;100.00;95280.59;10952194;26;3020;-71
2024/04/15 10:18:33;;;;;;;;;;;;;;;12.86;100.00;95288.22;10952412;26;3148;-70
2024/04/15 10:23:38;;;;;;;;;;;;;;;12.34;100.00;95294.84;10951925;26;2889;-70
2024/04/15 10:28:42;;;;;;;;;;;;;;;11.85;100.00;95280.81;10954706;26;3107;-67
2024/04/15 10:33:46;;;;;;;;;;;;;;;11.81;100.00;95277.09;10957359;26;3127;-69
2024/04/15 10:38:51;;;;;;;;;;;;;;;11.84;100.00;95284.63;10959486;26;3103;-68
2024/04/15 10:43:55;;;;;;;;;;;;;;;11.81;100.00;95281.69;10962483;26;3019;-71
2024/04/15 10:49:03;;;;;;;;;;;;;;;12.05;100.00;95273.50;10961688;26;3214;-74
2024/04/15 10:54:07;;;;;;;;;;;;;;;12.04;100.00;95264.63;10967745;26;3364;-70
2024/04/15 10:59:12;;;;;;;;;;;;;;;12.26;100.00;95241.63;10955275;26;3105;-71
2024/04/15 11:04:16;;;;;;;;;;;;;;;12.26;100.00;95233.53;10920131;26;3098;-69
2024/04/15 11:09:20;;;;;;;;;;;;;;;11.97;100.00;95233.78;10949485;26;3479;-74
2024/04/15 11:14:26;;;;;;;;;;;;;;;11.95;100.00;95214.41;10952392;26;3079;-73
2024/04/15 11:19:30;;;;;;;;;;;;;;;12.34;100.00;95187.84;10961624;26;2546;-73
2024/04/15 11:24:35;;;;;;;;;;;;;;;12.98;100.00;95180.63;10946504;26;3249;-73
2024/04/15 11:29:39;;;;;;;;;;;;;;;13.09;100.00;95166.88;10956736;26;2875;-73
2024/04/15 11:34:59;;;;;;;;;;;;;;;12.94;100.00;95174.22;10953134;26;3118;-73
2024/04/15 11:40:03;;;;;;;;;;;;;;;13.09;100.00;95164.19;10949279;26;2968;-74
2024/04/15 11:45:09;;;;;;;;;;;;;;;13.29;100.00;95147.56;10949795;26;3119;-73
2024/04/15 11:50:13;;;;;;;;;;;;;;;13.36;100.00;95139.84;10941792;26;3568;-73
2024/04/15 11:55:18;;;;;;;;;;;;;;;13.14;100.00;95129.00;10947374;26;2881;-72
2024/04/15 12:00:22;;;;;;;;;;;;;;;12.95;100.00;95126.47;10916901;26;3228;-71
2024/04/15 12:05:27;;;;;;;;;;;;;;;12.68;100.00;95138.09;10943331;26;3076;-70
2024/04/15 12:10:31;;;;;;;;;;;;;;;12.77;100.00;95130.09;10953566;26;3125;-70
2024/04/15 12:15:35;;;;;;;;;;;;;;;12.81;100.00;95129.19;10954646;26;3096;-72
2024/04/15 12:20:40;;;;;;;;;;;;;;;12.92;100.00;95121.69;10961549;26;3143;-70
2024/04/15 12:25:44;;;;;;;;;;;;;;;12.86;100.00;95095.94;10961909;26;3120;-70
2024/04/15 12:30:50;;;;;;;;;;;;;;;13.76;100.00;95065.13;10956437;26;2849;-70
2024/04/15 12:35:55;;;;;;;;;;;;;;;14.05;100.00;95037.56;10955137;26;3159;-70
2024/04/15 12:40:59;;;;;;;;;;;;;;;14.55;100.00;95042.66;10953254;26;2932;-70
2024/04/15 12:46:03;;;;;;;;;;;;;;;14.71;100.00;95020.56;10959223;26;3017;-71
2024/04/15 12:51:07;;;;;;;;;;;;;;;15.43;100.00;95017.16;10955938;26;3159;-70
2024/04/15 12:56:12;;;;;;;;;;;;;;;16.10;100.00;95011.03;10950940;26;3092;-70
2024/04/15 13:01:16;;;;;;;;;;;;;;;15.95;100.00;94979.84;10943740;26;3111;-71
2024/04/15 13:06:20;;;;;;;;;;;;;;;16.34;100.00;94958.88;10951232;26;3118;-70
2024/04/15 13:11:25;;;;;;;;;;;;;;;16.04;100.00;94939.16;10952926;26;3024;-69
2024/04/15 13:16:29;;;;;;;;;;;;;;;15.64;100.00;94931.38;10945361;26;3188;-71
2024/04/15 13:21:33;;;;;;;;;;;;;;;15.80;100.00;94909.94;10946009;26;3276;-69
2024/04/15 13:26:38;;;;;;;;;;;;;;;15.78;100.00;94895.16;10951221;26;3107;-70
2024/04/15 13:31:49;;;;;;;;;;;;;;;15.88;100.00;94900.16;10950230;26;3237;-69
2024/04/15 13:37:11;;;;;;;;;;;;;;;15.46;100.00;94859.44;10949814;26;3047;-69
2024/04/15 13:42:16;;;;;;;;;;;;;;;15.77;100.00;94858.31;10953928;26;3245;-70
2024/04/15 13:47:20;;;;;;;;;;;;;;;16.61;100.00;94816.50;10958341;26;3221;-69
2024/04/15 13:52:24;;;;;;;;;;;;;;;17.21;100.00;94795.22;10958435;26;3000;-69
2024/04/15 13:57:28;;;;;;;;;;;;;;;16.97;100.00;94782.44;10959179;26;2518;-70
2024/04/15 14:02:33;;;;;;;;;;;;;;;16.38;100.00;94782.72;10957418;26;2944;-70
2024/04/15 14:07:37;;;;;;;;;;;;;;;16.35;100.00;94756.25;10958527;26;2873;-72
2024/04/15 14:12:47;;;;;;;;;;;;;;;16.37;100.00;94748.59;10949794;26;3036;-71
2024/04/15 14:17:55;;;;;;;;;;;;;;;16.21;100.00;94738.38;10952108;26;3274;-70
2024/04/15 14:22:59;;;;;;;;;;;;;;;16.11;100.00;94741.50;10950203;26;3028;-70
2024/04/15 14:28:04;;;;;;;;;;;;;;;15.64;100.00;94724.69;10952000;26;2981;-69
2024/04/15 14:33:08;;;;;;;;;;;;;;;15.29;100.00;94745.78;10945459;26;3286;-69
2024/04/15 14:38:12;;;;;;;;;;;;;;;15.00;100.00;94728.44;10950511;26;3004;-70
2024/04/15 14:43:16;;;;;;;;;;;;;;;14.91;100.00;94724.19;10958072;26;3257;-69
2024/04/15 14:48:21;;;;;;;;;;;;;;;14.79;100.00;94733.00;10961298;26;3174;-70
2024/04/15 14:53:26;;;;;;;;;;;;;;;14.48;100.00;94715.13;10949798;26;2972;-69
2024/04/15 14:58:30;;;;;;;;;;;;;;;14.40;100.00;94674.59;10946591;26;3120;-69
2024/04/15 15:03:35;;;;;;;;;;;;;;;14.36;100.00;94652.81;10955112;26;3123;-70
2024/04/15 15:08:45;;;;;;;;;;;;;;;14.52;100.00;94647.69;10960384;26;3245;-70
2024/04/15 15:13:49;;;;;;;;;;;;;;;14.73;100.00;94634.22;10961035;26;3119;-71
2024/04/15 15:18:54;;;;;;;;;;;;;;;14.97;100.00;94626.25;10963116;26;3047;-70
2024/04/15 15:23:58;;;;;;;;;;;;;;;15.32;100.00;94598.91;10962503;26;3229;-69
2024/04/15 15:29:10;;;;;;;;;;;;;;;15.36;100.00;94591.72;10957805;26;3009;-69
2024/04/15 15:34:14;;;;;;;;;;;;;;;15.19;100.00;94602.69;10967515;26;3394;-71
2024/04/15 15:39:21;;;;;;;;;;;;;;;15.19;100.00;94591.88;10949647;26;3102;-71
2024/04/15 15:44:28;;;;;;;;;;;;;;;15.60;100.00;94564.72;10921749;26;3248;-70
2024/04/15 15:49:32;;;;;;;;;;;;;;;15.83;100.00;94539.97;10953534;26;3209;-70
2024/04/15 15:54:37;;;;;;;;;;;;;;;15.62;100.00;94526.50;10952813;26;3115;-71
2024/04/15 15:59:41;;;;;;;;;;;;;;;15.51;100.00;94525.31;10926033;26;3091;-71
2024/04/15 16:04:46;;;;;;;;;;;;;;;15.35;100.00;94517.03;10960550;26;3146;-70
2024/04/15 16:09:54;;;;;;;;;;;;;;;15.29;100.00;94502.13;10962522;26;3229;-73
2024/04/15 16:14:59;;;;;;;;;;;;;;;15.23;100.00;94515.09;10962951;26;3016;-71
2024/04/15 16:20:03;;;;;;;;;;;;;;;15.18;100.00;94500.97;10950811;26;3241;-71
2024/04/15 16:25:07;;;;;;;;;;;;;;;15.61;100.00;94503.22;10953933;26;3131;-75
2024/04/15 16:30:13;;;;;;;;;;;;;;;15.83;100.00;94504.72;10957494;26;3008;-73
2024/04/15 16:35:19;;;;;;;;;;;;;;;15.70;100.00;94501.22;10959901;26;3013;-71
2024/04/15 16:40:23;;;;;;;;;;;;;;;15.66;100.00;94495.69;10953516;26;3003;-72
2024/04/15 16:45:27;;;;;;;;;;;;;;;15.60;100.00;94502.44;10955603;26;3029;-71
2024/04/15 16:50:33;;;;;;;;;;;;;;;15.54;100.00;94487.53;10962616;26;2869;-74
2024/04/15 16:55:37;;;;;;;;;;;;;;;15.48;100.00;94490.78;10952657;26;3543;-74
2024/04/15 17:00:44;;;;;;;;;;;;;;;15.58;100.00;94474.09;10952115;26;3123;-75
2024/04/15 17:05:50;;;;;;;;;;;;;;;15.56;100.00;94457.38;10951639;26;3045;-76
2024/04/15 17:10:55;;;;;;;;;;;;;;;15.35;100.00;94465.59;10963280;26;3150;-75
2024/04/15 17:16:00;;;;;;;;;;;;;;;15.20;100.00;94471.63;10927690;26;3139;-74
2024/04/15 17:21:04;;;;;;;;;;;;;;;15.06;100.00;94478.13;10961211;26;3013;-75
2024/04/15 17:26:09;;;;;;;;;;;;;;;14.92;100.00;94483.03;10954695;26;3168;-75
2024/04/15 17:31:14;;;;;;;;;;;;;;;14.78;100.00;94477.91;10950734;26;3173;-74
2024/04/15 17:36:18;;;;;;;;;;;;;;;14.75;100.00;94475.06;10954190;26;3131;-76
2024/04/15 17:41:22;;;;;;;;;;;;;;;14.68;100.00;94462.09;10951368;26;3040;-74
2024/04/15 17:46:28;;;;;;;;;;;;;;;14.54;100.00;94467.75;10952259;26;3213;-73
2024/04/15 17:51:34;;;;;;;;;;;;;;;14.54;100.00;94470.47;10955568;26;3238;-75
2024/04/15 17:56:38;;;;;;;;;;;;;;;14.25;100.00;94465.06;10953563;26;3166;-71
2024/04/15 18:01:43;;;;;;;;;;;;;;;14.07;100.00;94475.22;10946287;26;3127;-72
2024/04/15 18:06:47;;;;;;;;;;;;;;;13.99;100.00;94471.44;10949036;26;3221;-72
2024/04/15 18:11:51;;;;;;;;;;;;;;;13.91;100.00;94474.97;10948657;26;3136;-73
2024/04/15 18:16:56;;;;;;;;;;;;;;;13.85;100.00;94473.56;10926198;26;3091;-73
2024/04/15 18:22:00;;;;;;;;;;;;;;;13.84;100.00;94465.81;10944998;26;3263;-70
2024/04/15 18:27:04;;;;;;;;;;;;;;;13.94;100.00;94462.75;10945626;26;3111;-73
2024/04/15 18:32:08;;;;;;;;;;;;;;;13.87;100.00;94465.97;10949592;26;3118;-71
2024/04/15 18:37:13;;;;;;;;;;;;;;;13.94;100.00;94487.06;10963005;26;3205;-75
2024/04/15 18:42:20;;;;;;;;;;;;;;;14.20;100.00;94484.22;10997238;26;2018;-74
2024/04/15 18:47:25;;;;;;;;;;;;;;;14.16;100.00;94486.75;10994140;26;2135;-75
2024/04/15 18:52:29;;;;;;;;;;;;;;;14.15;100.00;94506.00;10995338;26;1862;-73
2024/04/15 18:57:33;;;;;;;;;;;;;;;14.23;100.00;94515.97;10976073;26;2146;-74
2024/04/15 19:02:38;;;;;;;;;;;;;;;14.24;100.00;94517.56;10962780;26;3072;-74
2024/04/15 19:07:42;;;;;;;;;;;;;;;14.26;100.00;94521.53;10953934;26;2997;-73
2024/04/15 19:12:47;;;;;;;;;;;;;;;14.40;100.00;94494.25;10952392;26;2915;-73
2024/04/15 19:17:52;;;;;;;;;;;;;;;14.27;100.00;94516.91;10957511;26;3277;-73
2024/04/15 19:22:56;;;;;;;;;;;;;;;14.20;100.00;94503.13;10953186;26;3213;-76
2024/04/15 19:28:02;;;;;;;;;;;;;;;14.12;100.00;94518.25;10957058;26;3343;-75
2024/04/15 19:33:06;;;;;;;;;;;;;;;14.15;100.00;94514.13;10955775;26;3146;-73
2024/04/15 19:38:11;;;;;;;;;;;;;;;13.98;100.00;94521.19;10954201;26;2734;-73
2024/04/15 19:43:16;;;;;;;;;;;;;;;13.93;100.00;94529.50;10922594;26;3173;-76
2024/04/15 19:48:22;;;;;;;;;;;;;;;13.84;100.00;94531.41;10954031;26;3169;-75
2024/04/15 19:53:26;;;;;;;;;;;;;;;13.90;100.00;94532.81;10955270;26;2941;-74
2024/04/15 19:58:31;;;;;;;;;;;;;;;13.87;100.00;94547.00;10954994;26;3075;-73
2024/04/15 20:03:35;;;;;;;;;;;;;;;13.86;99.50;94523.78;10956708;26;3237;-73
2024/04/15 20:08:41;;;;;;;;;;;;;;;13.74;100.00;94532.59;10954411;26;3106;-72
2024/04/15 20:13:46;;;;;;;;;;;;;;;13.68;100.00;94527.69;10952864;26;3239;-71
2024/04/15 20:19:02;;;;;;;;;;;;;;;13.58;100.00;94514.53;10952886;26;2936;-74
2024/04/15 20:24:06;;;;;;;;;;;;;;;13.47;100.00;94524.88;10950678;26;3178;-73
2024/04/15 20:29:11;;;;;;;;;;;;;;;13.44;100.00;94534.41;10958611;26;3076;-74
2024/04/15 20:34:15;;;;;;;;;;;;;;;13.35;100.00;94540.94;10951891;26;3123;-73
2024/04/15 20:39:20;;;;;;;;;;;;;;;13.24;100.00;94540.50;10954497;26;2959;-73
2024/04/15 20:44:24;;;;;;;;;;;;;;;13.16;100.00;94550.13;10955167;26;3028;-72
2024/04/15 20:49:32;;;;;;;;;;;;;;;13.16;100.00;94557.44;10960684;26;2969;-74
2024/04/15 20:54:37;;;;;;;;;;;;;;;13.14;100.00;94567.75;10960349;26;3237;-73
2024/04/15 20:59:41;;;;;;;;;;;;;;;13.09;100.00;94555.22;10947342;26;3256;-74
2024/04/15 21:04:46;;;;;;;;;;;;;;;13.11;100.00;94563.00;10957830;26;3040;-71
2024/04/15 21:09:50;;;;;;;;;;;;;;;12.92;100.00;94577.63;10928966;26;3112;-73
2024/04/15 21:14:54;;;;;;;;;;;;;;;12.95;100.00;94568.88;10950384;26;3139;-72
2024/04/15 21:19:59;;;;;;;;;;;;;;;12.94;100.00;94559.19;10949777;26;3099;-72
2024/04/15 21:25:03;;;;;;;;;;;;;;;12.90;100.00;94520.47;10952540;26;3182;-73
2024/04/15 21:30:08;;;;;;;;;;;;;;;12.91;100.00;94569.81;10941329;26;2940;-72
2024/04/15 21:40:31;;;;;;;;;;;;;;;12.86;100.00;94565.41;10952218;26;3294;-74
2024/04/15 21:45:36;;;;;;;;;;;;;;;12.89;100.00;94577.44;10960325;26;2857;-71
2024/04/15 21:50:40;;;;;;;;;;;;;;;12.85;100.00;94601.56;10947007;26;3014;-72
2024/04/15 21:55:46;;;;;;;;;;;;;;;10.82;100.00;94669.50;10953762;26;3099;-72
2024/04/15 22:00:50;;;;;;;;;;;;;;;8.79;100.00;94733.56;10946290;26;3230;-73
2024/04/15 22:05:54;;;;;;;;;;;;;;;8.01;100.00;94734.63;10952391;26;2849;-72
2024/04/15 22:10:58;;;;;;;;;;;;;;;7.59;100.00;94760.16;10946756;26;3584;-73
2024/04/15 22:16:03;;;;;;;;;;;;;;;7.24;100.00;94821.88;10945305;26;3233;-73
2024/04/15 22:21:08;;;;;;;;;;;;;;;7.04;100.00;94798.72;10947210;26;3024;-76
2024/04/15 22:26:12;;;;;;;;;;;;;;;6.80;100.00;94811.91;10941404;26;3379;-74
2024/04/15 22:31:17;;;;;;;;;;;;;;;6.82;100.00;94800.97;10916208;26;3173;-73
2024/04/15 22:36:21;;;;;;;;;;;;;;;6.36;100.00;94817.13;10946897;26;3232;-73
2024/04/15 22:41:26;;;;;;;;;;;;;;;6.39;100.00;94836.06;10953319;26;3142;-73
2024/04/15 22:46:31;;;;;;;;;;;;;;;6.50;100.00;94864.34;10949713;26;3217;-72
2024/04/15 22:51:35;;;;;;;;;;;;;;;6.58;100.00;94872.88;10948704;26;3176;-71
2024/04/15 22:56:40;;;;;;;;;;;;;;;6.24;100.00;94862.78;10945923;26;3052;-73
2024/04/15 23:01:46;;;;;;;;;;;;;;;5.92;100.00;94869.19;10943067;26;3229;-72
2024/04/15 23:06:51;;;;;;;;;;;;;;;5.73;100.00;94889.41;10947708;26;3048;-71
2024/04/15 23:11:55;;;;;;;;;;;;;;;5.75;100.00;94884.63;10947487;26;3110;-70
2024/04/15 23:17:01;;;;;;;;;;;;;;;5.55;100.00;94863.25;10920714;26;3126;-71
2024/04/15 23:22:05;;;;;;;;;;;;;;;5.52;100.00;94893.09;10954478;26;3130;-72
2024/04/15 23:27:10;;;;;;;;;;;;;;;5.37;100.00;94934.63;10953584;26;3071;-73
2024/04/15 23:32:14;;;;;;;;;;;;;;;5.30;100.00;94928.75;10926595;26;2928;-72
2024/04/15 23:37:19;;;;;;;;;;;;;;;5.36;100.00;94927.69;10955488;26;3114;-71
2024/04/15 23:42:23;;;;;;;;;;;;;;;5.31;100.00;94941.00;10957468;26;3107;-71
2024/04/15 23:47:30;;;;;;;;;;;;;;;5.37;100.00;94931.97;10960197;26;3250;-71
2024/04/15 23:52:35;;;;;;;;;;;;;;;5.26;100.00;94921.53;10955778;26;3075;-71
2024/04/15 23:57:39;;;;;;;;;;;;;;;5.38;100.00;94922.09;10962421;26;3147;-71
